sensor_id;sensor_type;location;lat;lon;timestamp;temperature;humidity
1570;DHT22;778;50.120;8.698;2023-08-08T00:01:13;15.20;99.90
1570;DHT22;778;50.120;8.698;2023-08-08T00:03:41;15.20;99.90
1570;DHT22;778;50.120;8.698;2023-08-08T00:06:10;15.20;99.90
1570;DHT22;778;50.120;8.698;2023-08-08T00:08:39;15.10;99.90
1570;DHT22;778;50.120;8.698;2023-08-08T00:11:08;15.10;99.90
1570;DHT22;778;50.120;8.698;2023-08-08T00:13:38;15.10;99.90
1570;DHT22;778;50.120;8.698;2023-08-08T00:16:06;15.20;99.90
1570;DHT22;778;50.120;8.698;2023-08-08T00:18:35;15.20;99.90
1570;DHT22;778;50.120;8.698;2023-08-08T00:21:04;15.10;99.90
1570;DHT22;778;50.120;8.698;2023-08-08T00:23:32;15.10;99.90
1570;DHT22;778;50.120;8.698;2023-08-08T00:26:00;15.10;99.90
1570;DHT22;778;50.120;8.698;2023-08-08T00:28:29;15.10;99.90
1570;DHT22;778;50.120;8.698;2023-08-08T00:30:59;15.00;99.90
1570;DHT22;778;50.120;8.698;2023-08-08T00:33:28;15.10;99.90
1570;DHT22;778;50.120;8.698;2023-08-08T00:35:56;15.10;99.90
1570;DHT22;778;50.120;8.698;2023-08-08T00:38:26;15.10;99.90
1570;DHT22;778;50.120;8.698;2023-08-08T00:40:54;15.00;99.90
1570;DHT22;778;50.120;8.698;2023-08-08T00:43:23;15.10;99.90
1570;DHT22;778;50.120;8.698;2023-08-08T00:45:51;15.10;99.90
1570;DHT22;778;50.120;8.698;2023-08-08T00:48:21;15.10;99.90
1570;DHT22;778;50.120;8.698;2023-08-08T00:50:50;15.10;99.90
1570;DHT22;778;50.120;8.698;2023-08-08T00:53:19;15.10;99.90
1570;DHT22;778;50.120;8.698;2023-08-08T00:55:49;15.10;99.90
1570;DHT22;778;50.120;8.698;2023-08-08T00:58:19;15.10;99.90
1570;DHT22;778;50.120;8.698;2023-08-08T01:00:48;15.10;99.90
1570;DHT22;778;50.120;8.698;2023-08-08T01:03:16;15.00;99.90
1570;DHT22;778;50.120;8.698;2023-08-08T01:05:51;15.10;99.90
1570;DHT22;778;50.120;8.698;2023-08-08T01:08:29;15.10;99.90
1570;DHT22;778;50.120;8.698;2023-08-08T01:11:01;15.10;99.90
1570;DHT22;778;50.120;8.698;2023-08-08T01:13:32;15.00;99.90
1570;DHT22;778;50.120;8.698;2023-08-08T01:16:02;15.00;99.90
1570;DHT22;778;50.120;8.698;2023-08-08T01:18:35;14.90;99.90
1570;DHT22;778;50.120;8.698;2023-08-08T01:21:07;14.90;99.90
1570;DHT22;778;50.120;8.698;2023-08-08T01:23:43;14.80;99.90
1570;DHT22;778;50.120;8.698;2023-08-08T01:26:17;14.80;99.90
1570;DHT22;778;50.120;8.698;2023-08-08T01:28:47;14.80;99.90
1570;DHT22;778;50.120;8.698;2023-08-08T01:31:15;14.80;99.90
1570;DHT22;778;50.120;8.698;2023-08-08T01:33:44;14.80;99.90
1570;DHT22;778;50.120;8.698;2023-08-08T01:36:20;14.80;99.90
1570;DHT22;778;50.120;8.698;2023-08-08T01:38:52;14.80;99.90
1570;DHT22;778;50.120;8.698;2023-08-08T01:41:24;14.70;99.90
1570;DHT22;778;50.120;8.698;2023-08-08T01:43:54;14.70;99.90
1570;DHT22;778;50.120;8.698;2023-08-08T01:46:24;14.70;99.90
1570;DHT22;778;50.120;8.698;2023-08-08T01:48:53;14.60;99.90
1570;DHT22;778;50.120;8.698;2023-08-08T01:51:21;14.60;99.90
1570;DHT22;778;50.120;8.698;2023-08-08T01:53:52;14.60;99.90
1570;DHT22;778;50.120;8.698;2023-08-08T01:56:20;14.60;99.90
1570;DHT22;778;50.120;8.698;2023-08-08T01:58:50;14.60;99.90
1570;DHT22;778;50.120;8.698;2023-08-08T02:01:19;14.50;99.90
1570;DHT22;778;50.120;8.698;2023-08-08T02:03:47;14.50;99.90
1570;DHT22;778;50.120;8.698;2023-08-08T02:06:16;14.40;99.90
1570;DHT22;778;50.120;8.698;2023-08-08T02:08:45;14.40;99.90
1570;DHT22;778;50.120;8.698;2023-08-08T02:11:13;14.50;99.90
1570;DHT22;778;50.120;8.698;2023-08-08T02:13:42;14.50;99.90
1570;DHT22;778;50.120;8.698;2023-08-08T02:16:12;14.40;99.90
1570;DHT22;778;50.120;8.698;2023-08-08T02:18:40;14.30;99.90
1570;DHT22;778;50.120;8.698;2023-08-08T02:21:09;14.40;99.90
1570;DHT22;778;50.120;8.698;2023-08-08T02:23:37;14.40;99.90
1570;DHT22;778;50.120;8.698;2023-08-08T02:26:06;14.30;99.90
1570;DHT22;778;50.120;8.698;2023-08-08T02:28:34;14.30;99.90
1570;DHT22;778;50.120;8.698;2023-08-08T02:31:03;14.40;99.90
1570;DHT22;778;50.120;8.698;2023-08-08T02:33:32;14.30;99.90
1570;DHT22;778;50.120;8.698;2023-08-08T02:36:01;14.30;99.90
1570;DHT22;778;50.120;8.698;2023-08-08T02:38:29;14.30;99.90
1570;DHT22;778;50.120;8.698;2023-08-08T02:40:58;14.30;99.90
1570;DHT22;778;50.120;8.698;2023-08-08T02:43:26;14.30;99.90
1570;DHT22;778;50.120;8.698;2023-08-08T02:45:55;14.20;99.90
1570;DHT22;778;50.120;8.698;2023-08-08T02:48:24;14.20;99.90
1570;DHT22;778;50.120;8.698;2023-08-08T02:50:53;14.10;99.90
1570;DHT22;778;50.120;8.698;2023-08-08T02:53:25;14.00;99.90
1570;DHT22;778;50.120;8.698;2023-08-08T02:55:53;14.10;99.90
1570;DHT22;778;50.120;8.698;2023-08-08T02:58:22;14.00;99.90
1570;DHT22;778;50.120;8.698;2023-08-08T03:00:51;14.10;99.90
1570;DHT22;778;50.120;8.698;2023-08-08T03:03:20;14.00;99.90
1570;DHT22;778;50.120;8.698;2023-08-08T03:05:49;13.90;99.90
1570;DHT22;778;50.120;8.698;2023-08-08T03:08:20;14.00;99.90
1570;DHT22;778;50.120;8.698;2023-08-08T03:10:49;14.00;99.90
1570;DHT22;778;50.120;8.698;2023-08-08T03:13:17;13.90;99.90
1570;DHT22;778;50.120;8.698;2023-08-08T03:15:50;13.70;99.90
1570;DHT22;778;50.120;8.698;2023-08-08T03:18:18;13.80;99.90
1570;DHT22;778;50.120;8.698;2023-08-08T03:20:47;13.80;99.90
1570;DHT22;778;50.120;8.698;2023-08-08T03:23:17;13.80;99.90
1570;DHT22;778;50.120;8.698;2023-08-08T03:25:47;13.70;99.90
1570;DHT22;778;50.120;8.698;2023-08-08T03:28:16;13.50;99.90
1570;DHT22;778;50.120;8.698;2023-08-08T03:30:44;13.60;99.90
1570;DHT22;778;50.120;8.698;2023-08-08T03:33:13;13.50;99.90
1570;DHT22;778;50.120;8.698;2023-08-08T03:35:42;13.40;99.90
1570;DHT22;778;50.120;8.698;2023-08-08T03:38:11;13.50;99.90
1570;DHT22;778;50.120;8.698;2023-08-08T03:40:40;13.40;99.90
1570;DHT22;778;50.120;8.698;2023-08-08T03:43:11;13.40;99.90
1570;DHT22;778;50.120;8.698;2023-08-08T03:45:39;13.40;99.90
1570;DHT22;778;50.120;8.698;2023-08-08T03:48:08;13.70;99.90
1570;DHT22;778;50.120;8.698;2023-08-08T03:50:37;13.60;99.90
1570;DHT22;778;50.120;8.698;2023-08-08T03:53:05;13.60;99.90
1570;DHT22;778;50.120;8.698;2023-08-08T03:55:34;13.70;99.90
1570;DHT22;778;50.120;8.698;2023-08-08T03:58:04;13.60;99.90
1570;DHT22;778;50.120;8.698;2023-08-08T04:00:35;13.50;99.90
1570;DHT22;778;50.120;8.698;2023-08-08T04:03:04;13.60;99.90
1570;DHT22;778;50.120;8.698;2023-08-08T04:05:33;13.60;99.90
1570;DHT22;778;50.120;8.698;2023-08-08T04:08:01;13.70;99.90
1570;DHT22;778;50.120;8.698;2023-08-08T04:10:30;13.60;99.90
1570;DHT22;778;50.120;8.698;2023-08-08T04:12:58;13.40;99.90
1570;DHT22;778;50.120;8.698;2023-08-08T04:15:28;13.40;99.90
1570;DHT22;778;50.120;8.698;2023-08-08T04:17:58;13.50;99.90
1570;DHT22;778;50.120;8.698;2023-08-08T04:20:26;13.40;99.90
1570;DHT22;778;50.120;8.698;2023-08-08T04:22:55;13.30;99.90
1570;DHT22;778;50.120;8.698;2023-08-08T04:25:23;13.40;99.90
1570;DHT22;778;50.120;8.698;2023-08-08T04:27:51;13.40;99.90
1570;DHT22;778;50.120;8.698;2023-08-08T04:30:20;13.50;99.90
1570;DHT22;778;50.120;8.698;2023-08-08T04:32:48;13.40;99.90
1570;DHT22;778;50.120;8.698;2023-08-08T04:35:18;13.50;99.90
1570;DHT22;778;50.120;8.698;2023-08-08T04:37:47;13.40;99.90
1570;DHT22;778;50.120;8.698;2023-08-08T04:40:15;13.40;99.90
1570;DHT22;778;50.120;8.698;2023-08-08T04:42:44;13.40;99.90
1570;DHT22;778;50.120;8.698;2023-08-08T04:45:12;13.30;99.90
1570;DHT22;778;50.120;8.698;2023-08-08T04:47:41;13.40;99.90
1570;DHT22;778;50.120;8.698;2023-08-08T04:50:10;13.40;99.90
1570;DHT22;778;50.120;8.698;2023-08-08T04:52:40;13.40;99.90
1570;DHT22;778;50.120;8.698;2023-08-08T04:55:09;13.30;99.90
1570;DHT22;778;50.120;8.698;2023-08-08T04:57:37;13.40;99.90
1570;DHT22;778;50.120;8.698;2023-08-08T05:00:06;13.40;99.90
1570;DHT22;778;50.120;8.698;2023-08-08T05:02:35;13.30;99.90
1570;DHT22;778;50.120;8.698;2023-08-08T05:05:07;13.50;99.90
1570;DHT22;778;50.120;8.698;2023-08-08T05:07:36;13.70;99.90
1570;DHT22;778;50.120;8.698;2023-08-08T05:10:07;14.00;99.90
1570;DHT22;778;50.120;8.698;2023-08-08T05:12:35;14.10;99.90
1570;DHT22;778;50.120;8.698;2023-08-08T05:15:04;14.30;99.90
1570;DHT22;778;50.120;8.698;2023-08-08T05:17:34;14.30;99.90
1570;DHT22;778;50.120;8.698;2023-08-08T05:20:03;14.50;99.90
1570;DHT22;778;50.120;8.698;2023-08-08T05:22:33;14.70;99.90
1570;DHT22;778;50.120;8.698;2023-08-08T05:25:02;14.90;99.90
1570;DHT22;778;50.120;8.698;2023-08-08T05:27:32;15.20;99.90
1570;DHT22;778;50.120;8.698;2023-08-08T05:30:00;15.40;99.90
1570;DHT22;778;50.120;8.698;2023-08-08T05:32:29;15.50;99.90
1570;DHT22;778;50.120;8.698;2023-08-08T05:34:57;15.70;99.90
1570;DHT22;778;50.120;8.698;2023-08-08T05:37:27;15.70;99.90
1570;DHT22;778;50.120;8.698;2023-08-08T05:39:55;15.90;99.90
1570;DHT22;778;50.120;8.698;2023-08-08T05:42:24;15.90;99.90
1570;DHT22;778;50.120;8.698;2023-08-08T05:44:54;16.00;99.90
1570;DHT22;778;50.120;8.698;2023-08-08T05:47:22;16.20;99.90
1570;DHT22;778;50.120;8.698;2023-08-08T05:49:51;16.30;99.90
1570;DHT22;778;50.120;8.698;2023-08-08T05:52:20;16.30;99.90
1570;DHT22;778;50.120;8.698;2023-08-08T05:54:49;16.50;99.90
1570;DHT22;778;50.120;8.698;2023-08-08T05:57:17;16.70;99.90
1570;DHT22;778;50.120;8.698;2023-08-08T05:59:46;17.00;99.90
1570;DHT22;778;50.120;8.698;2023-08-08T06:02:16;17.20;99.90
1570;DHT22;778;50.120;8.698;2023-08-08T06:04:44;17.50;99.90
1570;DHT22;778;50.120;8.698;2023-08-08T06:07:13;17.40;99.90
1570;DHT22;778;50.120;8.698;2023-08-08T06:09:41;17.30;99.90
1570;DHT22;778;50.120;8.698;2023-08-08T06:12:10;17.40;99.90
1570;DHT22;778;50.120;8.698;2023-08-08T06:14:38;17.40;99.90
1570;DHT22;778;50.120;8.698;2023-08-08T06:17:07;17.60;99.90
1570;DHT22;778;50.120;8.698;2023-08-08T06:19:36;17.80;99.90
1570;DHT22;778;50.120;8.698;2023-08-08T06:22:05;18.10;99.90
1570;DHT22;778;50.120;8.698;2023-08-08T06:24:33;18.50;99.90
1570;DHT22;778;50.120;8.698;2023-08-08T06:27:02;18.80;99.90
1570;DHT22;778;50.120;8.698;2023-08-08T06:29:31;18.70;99.90
1570;DHT22;778;50.120;8.698;2023-08-08T06:31:59;18.40;99.90
1570;DHT22;778;50.120;8.698;2023-08-08T06:34:28;18.90;99.90
1570;DHT22;778;50.120;8.698;2023-08-08T06:36:58;18.60;99.90
1570;DHT22;778;50.120;8.698;2023-08-08T06:39:26;18.80;99.90
1570;DHT22;778;50.120;8.698;2023-08-08T06:41:55;18.90;99.90
1570;DHT22;778;50.120;8.698;2023-08-08T06:44:33;19.00;99.90
1570;DHT22;778;50.120;8.698;2023-08-08T06:47:08;19.10;99.90
1570;DHT22;778;50.120;8.698;2023-08-08T06:49:36;19.00;99.90
1570;DHT22;778;50.120;8.698;2023-08-08T06:52:07;19.40;99.90
1570;DHT22;778;50.120;8.698;2023-08-08T06:54:35;20.10;99.90
1570;DHT22;778;50.120;8.698;2023-08-08T06:57:04;20.20;99.90
1570;DHT22;778;50.120;8.698;2023-08-08T06:59:32;20.40;99.90
1570;DHT22;778;50.120;8.698;2023-08-08T07:02:01;20.60;99.90
1570;DHT22;778;50.120;8.698;2023-08-08T07:04:30;20.90;99.90
1570;DHT22;778;50.120;8.698;2023-08-08T07:06:59;20.60;99.90
1570;DHT22;778;50.120;8.698;2023-08-08T07:09:29;20.50;99.90
1570;DHT22;778;50.120;8.698;2023-08-08T07:11:57;20.60;99.90
1570;DHT22;778;50.120;8.698;2023-08-08T07:14:26;20.60;99.90
1570;DHT22;778;50.120;8.698;2023-08-08T07:16:54;20.50;99.90
1570;DHT22;778;50.120;8.698;2023-08-08T07:19:23;20.70;99.90
1570;DHT22;778;50.120;8.698;2023-08-08T07:21:52;21.10;99.90
1570;DHT22;778;50.120;8.698;2023-08-08T07:24:20;20.90;99.90
1570;DHT22;778;50.120;8.698;2023-08-08T07:26:51;21.40;99.90
1570;DHT22;778;50.120;8.698;2023-08-08T07:29:20;21.50;99.90
1570;DHT22;778;50.120;8.698;2023-08-08T07:31:48;21.40;99.90
1570;DHT22;778;50.120;8.698;2023-08-08T07:34:17;21.70;99.90
1570;DHT22;778;50.120;8.698;2023-08-08T07:36:45;21.30;99.90
1570;DHT22;778;50.120;8.698;2023-08-08T07:39:14;21.20;99.90
1570;DHT22;778;50.120;8.698;2023-08-08T07:41:42;21.70;99.90
1570;DHT22;778;50.120;8.698;2023-08-08T07:44:12;21.80;99.90
1570;DHT22;778;50.120;8.698;2023-08-08T07:46:41;21.80;99.90
1570;DHT22;778;50.120;8.698;2023-08-08T07:49:09;21.70;99.90
1570;DHT22;778;50.120;8.698;2023-08-08T07:51:38;21.60;99.90
1570;DHT22;778;50.120;8.698;2023-08-08T07:54:06;21.80;99.90
1570;DHT22;778;50.120;8.698;2023-08-08T07:56:36;21.80;99.90
1570;DHT22;778;50.120;8.698;2023-08-08T07:59:04;21.20;99.90
1570;DHT22;778;50.120;8.698;2023-08-08T08:01:34;21.10;99.90
1570;DHT22;778;50.120;8.698;2023-08-08T08:04:03;21.10;99.90
1570;DHT22;778;50.120;8.698;2023-08-08T08:06:32;20.50;99.90
1570;DHT22;778;50.120;8.698;2023-08-08T08:09:01;20.70;99.90
1570;DHT22;778;50.120;8.698;2023-08-08T08:11:30;21.20;99.90
1570;DHT22;778;50.120;8.698;2023-08-08T08:13:58;21.20;99.90
1570;DHT22;778;50.120;8.698;2023-08-08T08:16:27;20.90;99.90
1570;DHT22;778;50.120;8.698;2023-08-08T08:18:57;20.90;99.90
1570;DHT22;778;50.120;8.698;2023-08-08T08:21:25;20.70;99.90
1570;DHT22;778;50.120;8.698;2023-08-08T08:23:54;20.90;99.90
1570;DHT22;778;50.120;8.698;2023-08-08T08:26:22;20.60;99.90
1570;DHT22;778;50.120;8.698;2023-08-08T08:28:51;20.60;99.90
1570;DHT22;778;50.120;8.698;2023-08-08T08:31:19;20.40;99.90
1570;DHT22;778;50.120;8.698;2023-08-08T08:33:48;20.40;99.90
1570;DHT22;778;50.120;8.698;2023-08-08T08:36:18;21.00;99.90
1570;DHT22;778;50.120;8.698;2023-08-08T08:38:48;21.00;99.90
1570;DHT22;778;50.120;8.698;2023-08-08T08:41:18;21.60;99.90
1570;DHT22;778;50.120;8.698;2023-08-08T08:43:48;21.50;99.90
1570;DHT22;778;50.120;8.698;2023-08-08T08:46:21;21.10;99.80
1570;DHT22;778;50.120;8.698;2023-08-08T08:48:51;20.80;99.90
1570;DHT22;778;50.120;8.698;2023-08-08T08:51:21;20.40;99.60
1570;DHT22;778;50.120;8.698;2023-08-08T08:53:51;20.70;99.70
1570;DHT22;778;50.120;8.698;2023-08-08T08:56:20;20.40;99.10
1570;DHT22;778;50.120;8.698;2023-08-08T08:58:50;20.60;99.90
1570;DHT22;778;50.120;8.698;2023-08-08T09:01:19;20.50;99.70
1570;DHT22;778;50.120;8.698;2023-08-08T09:03:49;20.80;99.60
1570;DHT22;778;50.120;8.698;2023-08-08T09:06:18;20.60;99.10
1570;DHT22;778;50.120;8.698;2023-08-08T09:08:51;20.60;99.90
1570;DHT22;778;50.120;8.698;2023-08-08T09:11:33;20.50;99.80
1570;DHT22;778;50.120;8.698;2023-08-08T09:14:03;20.60;99.90
1570;DHT22;778;50.120;8.698;2023-08-08T09:16:31;20.60;99.90
1570;DHT22;778;50.120;8.698;2023-08-08T09:19:00;21.10;99.50
1570;DHT22;778;50.120;8.698;2023-08-08T09:21:31;21.50;99.90
1570;DHT22;778;50.120;8.698;2023-08-08T09:24:00;21.90;98.30
1570;DHT22;778;50.120;8.698;2023-08-08T09:26:28;21.70;98.50
1570;DHT22;778;50.120;8.698;2023-08-08T09:28:57;21.90;97.70
1570;DHT22;778;50.120;8.698;2023-08-08T09:31:26;21.90;97.00
1570;DHT22;778;50.120;8.698;2023-08-08T09:36:24;21.80;97.10
1570;DHT22;778;50.120;8.698;2023-08-08T09:38:54;22.00;96.70
1570;DHT22;778;50.120;8.698;2023-08-08T09:41:23;22.20;96.80
1570;DHT22;778;50.120;8.698;2023-08-08T09:43:52;22.20;95.90
1570;DHT22;778;50.120;8.698;2023-08-08T09:46:22;22.40;95.50
1570;DHT22;778;50.120;8.698;2023-08-08T09:48:51;22.00;96.60
1570;DHT22;778;50.120;8.698;2023-08-08T09:51:20;21.40;97.10
1570;DHT22;778;50.120;8.698;2023-08-08T09:53:49;21.00;97.70
1570;DHT22;778;50.120;8.698;2023-08-08T09:56:20;20.80;98.40
1570;DHT22;778;50.120;8.698;2023-08-08T09:58:49;21.20;99.70
1570;DHT22;778;50.120;8.698;2023-08-08T10:01:19;21.50;99.50
1570;DHT22;778;50.120;8.698;2023-08-08T10:03:49;21.50;97.90
1570;DHT22;778;50.120;8.698;2023-08-08T10:06:19;21.70;98.40
1570;DHT22;778;50.120;8.698;2023-08-08T10:08:48;22.10;98.20
1570;DHT22;778;50.120;8.698;2023-08-08T10:11:21;22.10;97.70
1570;DHT22;778;50.120;8.698;2023-08-08T10:13:53;22.10;97.70
1570;DHT22;778;50.120;8.698;2023-08-08T10:16:22;22.50;96.90
1570;DHT22;778;50.120;8.698;2023-08-08T10:18:55;22.60;97.20
1570;DHT22;778;50.120;8.698;2023-08-08T10:21:24;22.80;96.20
1570;DHT22;778;50.120;8.698;2023-08-08T10:24:03;22.40;96.00
1570;DHT22;778;50.120;8.698;2023-08-08T10:26:51;22.30;95.50
1570;DHT22;778;50.120;8.698;2023-08-08T10:29:21;22.30;96.80
1570;DHT22;778;50.120;8.698;2023-08-08T10:31:53;22.30;96.00
1570;DHT22;778;50.120;8.698;2023-08-08T10:34:37;22.60;96.70
1570;DHT22;778;50.120;8.698;2023-08-08T10:37:09;22.30;92.30
1570;DHT22;778;50.120;8.698;2023-08-08T10:39:50;22.50;92.60
1570;DHT22;778;50.120;8.698;2023-08-08T10:42:23;21.90;93.70
1570;DHT22;778;50.120;8.698;2023-08-08T10:44:54;22.30;94.10
1570;DHT22;778;50.120;8.698;2023-08-08T10:47:24;22.10;94.30
1570;DHT22;778;50.120;8.698;2023-08-08T10:49:59;22.10;93.90
1570;DHT22;778;50.120;8.698;2023-08-08T10:52:31;22.00;94.70
1570;DHT22;778;50.120;8.698;2023-08-08T10:55:02;22.00;94.00
1570;DHT22;778;50.120;8.698;2023-08-08T10:57:33;21.60;94.10
1570;DHT22;778;50.120;8.698;2023-08-08T11:00:17;21.60;94.10
1570;DHT22;778;50.120;8.698;2023-08-08T11:02:47;21.50;94.00
1570;DHT22;778;50.120;8.698;2023-08-08T11:05:15;21.70;95.30
1570;DHT22;778;50.120;8.698;2023-08-08T11:07:44;21.90;94.30
1570;DHT22;778;50.120;8.698;2023-08-08T11:10:12;21.90;93.40
1570;DHT22;778;50.120;8.698;2023-08-08T11:12:42;22.00;93.90
1570;DHT22;778;50.120;8.698;2023-08-08T11:15:24;21.90;92.70
1570;DHT22;778;50.120;8.698;2023-08-08T11:17:55;21.90;92.70
1570;DHT22;778;50.120;8.698;2023-08-08T11:20:25;21.80;92.30
1570;DHT22;778;50.120;8.698;2023-08-08T11:22:57;22.00;91.60
1570;DHT22;778;50.120;8.698;2023-08-08T11:25:27;21.70;91.20
1570;DHT22;778;50.120;8.698;2023-08-08T11:27:58;21.90;91.80
1570;DHT22;778;50.120;8.698;2023-08-08T11:30:29;21.60;91.30
1570;DHT22;778;50.120;8.698;2023-08-08T11:32:59;21.90;91.00
1570;DHT22;778;50.120;8.698;2023-08-08T11:35:30;21.60;90.30
1570;DHT22;778;50.120;8.698;2023-08-08T11:38:02;21.50;88.30
1570;DHT22;778;50.120;8.698;2023-08-08T11:40:32;21.60;91.10
1570;DHT22;778;50.120;8.698;2023-08-08T11:43:03;21.70;86.70
1570;DHT22;778;50.120;8.698;2023-08-08T11:45:32;22.00;88.90
1570;DHT22;778;50.120;8.698;2023-08-08T11:48:03;22.20;84.70
1570;DHT22;778;50.120;8.698;2023-08-08T11:50:33;22.10;86.40
1570;DHT22;778;50.120;8.698;2023-08-08T11:53:03;22.00;84.00
1570;DHT22;778;50.120;8.698;2023-08-08T11:55:33;22.20;86.50
1570;DHT22;778;50.120;8.698;2023-08-08T11:58:03;22.20;85.90
1570;DHT22;778;50.120;8.698;2023-08-08T12:00:35;22.30;85.30
1570;DHT22;778;50.120;8.698;2023-08-08T12:03:04;21.80;85.90
1570;DHT22;778;50.120;8.698;2023-08-08T12:05:37;21.90;86.20
1570;DHT22;778;50.120;8.698;2023-08-08T12:08:08;21.50;86.30
1570;DHT22;778;50.120;8.698;2023-08-08T12:10:37;21.70;86.40
1570;DHT22;778;50.120;8.698;2023-08-08T12:13:08;21.60;84.90
1570;DHT22;778;50.120;8.698;2023-08-08T12:15:39;21.60;86.60
1570;DHT22;778;50.120;8.698;2023-08-08T12:18:07;21.60;87.10
1570;DHT22;778;50.120;8.698;2023-08-08T12:20:36;21.70;88.10
1570;DHT22;778;50.120;8.698;2023-08-08T12:23:04;21.80;89.00
1570;DHT22;778;50.120;8.698;2023-08-08T12:25:32;21.70;89.60
1570;DHT22;778;50.120;8.698;2023-08-08T12:28:02;21.90;90.10
1570;DHT22;778;50.120;8.698;2023-08-08T12:30:32;21.90;88.80
1570;DHT22;778;50.120;8.698;2023-08-08T12:33:01;21.80;87.10
1570;DHT22;778;50.120;8.698;2023-08-08T12:35:29;21.70;87.80
1570;DHT22;778;50.120;8.698;2023-08-08T12:37:58;21.60;90.00
1570;DHT22;778;50.120;8.698;2023-08-08T12:40:26;21.50;88.50
1570;DHT22;778;50.120;8.698;2023-08-08T12:42:55;21.60;86.80
1570;DHT22;778;50.120;8.698;2023-08-08T12:45:23;21.70;87.60
1570;DHT22;778;50.120;8.698;2023-08-08T12:47:53;21.60;86.00
1570;DHT22;778;50.120;8.698;2023-08-08T12:50:22;21.60;86.10
1570;DHT22;778;50.120;8.698;2023-08-08T12:52:50;21.60;86.70
1570;DHT22;778;50.120;8.698;2023-08-08T12:55:18;21.40;86.90
1570;DHT22;778;50.120;8.698;2023-08-08T12:57:49;21.40;87.30
1570;DHT22;778;50.120;8.698;2023-08-08T13:00:17;21.40;87.80
1570;DHT22;778;50.120;8.698;2023-08-08T13:02:46;21.40;87.50
1570;DHT22;778;50.120;8.698;2023-08-08T13:05:16;21.20;87.00
1570;DHT22;778;50.120;8.698;2023-08-08T13:07:44;21.20;89.10
1570;DHT22;778;50.120;8.698;2023-08-08T13:10:13;21.30;90.40
1570;DHT22;778;50.120;8.698;2023-08-08T13:12:42;21.30;89.50
1570;DHT22;778;50.120;8.698;2023-08-08T13:15:10;21.20;89.90
1570;DHT22;778;50.120;8.698;2023-08-08T13:17:38;21.20;90.30
1570;DHT22;778;50.120;8.698;2023-08-08T13:20:08;21.40;90.50
1570;DHT22;778;50.120;8.698;2023-08-08T13:22:40;21.40;89.80
1570;DHT22;778;50.120;8.698;2023-08-08T13:25:09;21.50;89.10
1570;DHT22;778;50.120;8.698;2023-08-08T13:27:38;21.50;89.10
1570;DHT22;778;50.120;8.698;2023-08-08T13:30:07;21.40;87.00
1570;DHT22;778;50.120;8.698;2023-08-08T13:32:36;21.30;88.20
1570;DHT22;778;50.120;8.698;2023-08-08T13:35:06;21.20;86.10
1570;DHT22;778;50.120;8.698;2023-08-08T13:37:34;21.10;86.20
1570;DHT22;778;50.120;8.698;2023-08-08T13:40:05;21.00;86.80
1570;DHT22;778;50.120;8.698;2023-08-08T13:42:35;21.20;84.70
1570;DHT22;778;50.120;8.698;2023-08-08T13:45:05;21.10;84.80
1570;DHT22;778;50.120;8.698;2023-08-08T13:47:34;21.20;85.10
1570;DHT22;778;50.120;8.698;2023-08-08T13:50:04;21.20;85.80
1570;DHT22;778;50.120;8.698;2023-08-08T13:52:34;21.10;85.60
1570;DHT22;778;50.120;8.698;2023-08-08T13:55:05;21.20;85.20
1570;DHT22;778;50.120;8.698;2023-08-08T13:57:34;21.30;84.70
1570;DHT22;778;50.120;8.698;2023-08-08T14:00:04;21.20;85.00
1570;DHT22;778;50.120;8.698;2023-08-08T14:02:33;21.30;86.50
1570;DHT22;778;50.120;8.698;2023-08-08T14:05:02;21.20;86.40
1570;DHT22;778;50.120;8.698;2023-08-08T14:07:33;21.10;85.90
1570;DHT22;778;50.120;8.698;2023-08-08T14:10:02;21.10;87.50
1570;DHT22;778;50.120;8.698;2023-08-08T14:12:32;21.20;85.70
1570;DHT22;778;50.120;8.698;2023-08-08T14:15:01;21.30;87.30
1570;DHT22;778;50.120;8.698;2023-08-08T14:17:30;21.30;87.00
1570;DHT22;778;50.120;8.698;2023-08-08T14:19:59;21.30;88.40
1570;DHT22;778;50.120;8.698;2023-08-08T14:22:27;21.20;87.00
1570;DHT22;778;50.120;8.698;2023-08-08T14:24:56;21.20;87.60
1570;DHT22;778;50.120;8.698;2023-08-08T14:27:26;21.20;87.90
1570;DHT22;778;50.120;8.698;2023-08-08T14:29:54;21.00;86.80
1570;DHT22;778;50.120;8.698;2023-08-08T14:32:22;20.90;85.60
1570;DHT22;778;50.120;8.698;2023-08-08T14:34:51;20.90;85.50
1570;DHT22;778;50.120;8.698;2023-08-08T14:37:20;20.90;86.30
1570;DHT22;778;50.120;8.698;2023-08-08T14:39:49;21.00;86.40
1570;DHT22;778;50.120;8.698;2023-08-08T14:42:17;21.00;87.30
1570;DHT22;778;50.120;8.698;2023-08-08T14:44:48;21.00;87.10
1570;DHT22;778;50.120;8.698;2023-08-08T14:47:16;21.00;87.10
1570;DHT22;778;50.120;8.698;2023-08-08T14:49:45;21.10;87.40
1570;DHT22;778;50.120;8.698;2023-08-08T14:52:14;21.00;87.40
1570;DHT22;778;50.120;8.698;2023-08-08T14:54:42;21.00;88.20
1570;DHT22;778;50.120;8.698;2023-08-08T14:57:11;20.90;87.00
1570;DHT22;778;50.120;8.698;2023-08-08T14:59:41;20.80;87.80
1570;DHT22;778;50.120;8.698;2023-08-08T15:02:11;20.70;87.90
1570;DHT22;778;50.120;8.698;2023-08-08T15:04:39;20.70;88.90
1570;DHT22;778;50.120;8.698;2023-08-08T15:07:08;20.60;89.30
1570;DHT22;778;50.120;8.698;2023-08-08T15:09:36;20.60;90.20
1570;DHT22;778;50.120;8.698;2023-08-08T15:12:05;20.70;90.40
1570;DHT22;778;50.120;8.698;2023-08-08T15:14:34;20.70;91.00
1570;DHT22;778;50.120;8.698;2023-08-08T15:17:03;20.70;90.80
1570;DHT22;778;50.120;8.698;2023-08-08T15:19:32;20.70;91.40
1570;DHT22;778;50.120;8.698;2023-08-08T15:22:01;20.60;91.30
1570;DHT22;778;50.120;8.698;2023-08-08T15:24:29;20.60;91.70
1570;DHT22;778;50.120;8.698;2023-08-08T15:26:58;20.60;91.70
1570;DHT22;778;50.120;8.698;2023-08-08T15:29:27;20.60;92.60
1570;DHT22;778;50.120;8.698;2023-08-08T15:31:55;20.50;92.60
1570;DHT22;778;50.120;8.698;2023-08-08T15:34:23;20.50;92.90
1570;DHT22;778;50.120;8.698;2023-08-08T15:36:53;20.50;92.90
1570;DHT22;778;50.120;8.698;2023-08-08T15:39:25;20.50;93.20
1570;DHT22;778;50.120;8.698;2023-08-08T15:41:54;20.50;93.40
1570;DHT22;778;50.120;8.698;2023-08-08T15:44:22;20.50;93.90
1570;DHT22;778;50.120;8.698;2023-08-08T15:46:50;20.40;94.20
1570;DHT22;778;50.120;8.698;2023-08-08T15:49:20;20.50;94.50
1570;DHT22;778;50.120;8.698;2023-08-08T15:51:53;20.40;94.50
1570;DHT22;778;50.120;8.698;2023-08-08T15:54:23;20.40;95.00
1570;DHT22;778;50.120;8.698;2023-08-08T15:56:52;20.40;95.00
1570;DHT22;778;50.120;8.698;2023-08-08T15:59:20;20.40;95.30
1570;DHT22;778;50.120;8.698;2023-08-08T16:01:49;20.50;96.10
1570;DHT22;778;50.120;8.698;2023-08-08T16:04:17;20.30;95.40
1570;DHT22;778;50.120;8.698;2023-08-08T16:06:46;20.50;95.80
1570;DHT22;778;50.120;8.698;2023-08-08T16:09:16;20.60;95.80
1570;DHT22;778;50.120;8.698;2023-08-08T16:11:44;20.70;95.80
1570;DHT22;778;50.120;8.698;2023-08-08T16:14:13;20.70;96.00
1570;DHT22;778;50.120;8.698;2023-08-08T16:16:42;20.80;96.10
1570;DHT22;778;50.120;8.698;2023-08-08T16:19:11;20.70;96.00
1570;DHT22;778;50.120;8.698;2023-08-08T16:21:40;20.70;96.30
1570;DHT22;778;50.120;8.698;2023-08-08T16:24:08;20.60;96.50
1570;DHT22;778;50.120;8.698;2023-08-08T16:26:38;20.50;96.70
1570;DHT22;778;50.120;8.698;2023-08-08T16:29:06;20.50;97.00
1570;DHT22;778;50.120;8.698;2023-08-08T16:31:37;20.50;97.20
1570;DHT22;778;50.120;8.698;2023-08-08T16:34:06;20.50;97.70